Observations for GENOVA SESTRI, Italy (LIMJ)

LIMJ 100150Z 31018KT CAVOK 16/M03 Q1013 
LIMJ 100050Z 10009KT CAVOK 13/M02 Q1012 
LIMJ 100020Z VRB06KT CAVOK 13/M02 Q1012 
LIMJ 092350Z 01007G17KT 300V110 CAVOK 16/M03 Q1012  
LIMJ 092320Z 33012G24KT 300V360 CAVOK 16/M02 Q1012  
LIMJ 092250Z 33016G27KT CAVOK 16/M02 Q1012  
LIMJ 092220Z 34012KT 300V010 CAVOK 16/M02 Q1012 
LIMJ 092150Z 33016G30KT 300V360 CAVOK 16/M02 Q1011  
LIMJ 092120Z 33016KT CAVOK 16/M03 Q1011 
LIMJ 092050Z 32018KT 290V350 CAVOK 16/M04 Q1011 
LIMJ 092020Z 33016G26KT CAVOK 17/M04 Q1011  
LIMJ 091950Z 32018G30KT CAVOK 17/M04 Q1010  
LIMJ 091920Z 32021KT CAVOK 17/M05 Q1010 
LIMJ 091850Z 32016G28KT CAVOK 17/M05 Q1010  
LIMJ 091820Z 32018KT CAVOK 17/M05 Q1009 
LIMJ 091750Z 31021KT CAVOK 17/M05 Q1009 
LIMJ 091720Z 31022G34KT CAVOK 17/M04 Q1009  
LIMJ 091650Z 31022KT CAVOK 17/M04 Q1008 
LIMJ 091620Z 31015KT CAVOK 17/M02 Q1009 
LIMJ 091550Z 32015KT 300V360 CAVOK 17/M02 Q1009 
LIMJ 091520Z 33015KT 310V010 CAVOK 18/M02 Q1009 
LIMJ 091450Z 33016KT 300V010 CAVOK 18/M01 Q1008 
LIMJ 091420Z 33012KT 310V010 CAVOK 18/M01 Q1008 
LIMJ 091350Z VRB05KT CAVOK 17/03 Q1008  
LIMJ 091320Z 08005KT 040V120 CAVOK 17/10 Q1007  
LIMJ 091250Z VRB02KT CAVOK 17/09 Q1007  
LIMJ 091220Z VRB02KT CAVOK 17/09 Q1007  
LIMJ 091150Z 21005KT 180V240 CAVOK 17/09 Q1007  
LIMJ 091120Z 11004KT 070V140 CAVOK 17/09 Q1007  
LIMJ 091050Z VRB02KT CAVOK 17/08 Q1007  
LIMJ 091020Z 11003KT 030V140 CAVOK 16/09 Q1008  
LIMJ 090950Z VRB02KT 9999 FEW035 16/09 Q1008
LIMJ 090920Z VRB02KT 9999 FEW025 16/09 Q1008
LIMJ 090850Z VRB02KT 9999 FEW025 14/09 Q1008
LIMJ 090820Z 02003KT 9999 FEW025 12/08 Q1008
LIMJ 090750Z 02004KT 9999 FEW025 12/07 Q1008
LIMJ 090720Z 02004KT 9999 FEW025 11/07 Q1009
LIMJ 090650Z 03003KT 9999 FEW030 11/07 Q1009
LIMJ 090620Z 03003KT 350V080 9999 FEW030 11/07 Q1009
LIMJ 090550Z 03005KT 9999 FEW030 11/07 Q1010
LIMJ 090520Z 03005KT 9999 FEW030 11/07 Q1010
LIMJ 090450Z 03004KT 9999 FEW030 11/07 Q1011
LIMJ 090420Z 03005KT 9999 FEW030 11/07 Q1011
LIMJ 090350Z 02004KT 350V060 9999 FEW030 11/06 Q1012
LIMJ 090320Z 02005KT 9999 FEW030 10/06 Q1012
LIMJ 090250Z 02004KT 9999 FEW030 10/07 Q1013
LIMJ 090220Z 02005KT 9999 FEW030 11/07 Q1013
LIMJ 090150Z 03005KT 9999 FEW030 11/07 Q1013